Weather at Wamena Airport

Public forecast

Using degrees Celsius for public forecast. Weather courtesy of forecast.io.

Closest aviation weather report (METAR) to Wamena Airport

Report is more than 6 hours old.

Closest report is Mozes Kilangin Airport, 126.5 nm (234.4 km) WSW. Retrieved 2021/03/27 07:00 UTC (19 days ago):

WAYY 270700Z 17011G20KT 0300 +TSRA SCT010CB BKN011 27/26 Q1004 RMK CB OVER THE FIELD

Closest aviation forecast (TAF) to Wamena Airport

Closest forecast is Mozes Kilangin Airport, 126.5 nm (234.4 km) WSW. Retrieved UTC (0 seconds ago):